Time;durP1;ratioP1;P1;durP2;ratioP2;P2;SDS_P1;SDS_P2;PMS_P1;PMS_P2;Temp;Humidity;BMP_temperature;BMP_pressure;BME280_temperature;BME280_humidity;BME280_pressure;Samples;Min_cycle;Max_cycle;Signal;HPM_P1;HPM_P2
2022/04/18 00:02:18;;;;;;;0.60;0.13;;;10.60;99.90;;;;;;5073417;28;20481;-73
2022/04/18 00:04:46;;;;;;;1.63;0.73;;;10.60;99.90;;;;;;5071770;28;20948;-74
2022/04/18 00:07:13;;;;;;;0.60;0.10;;;10.50;99.90;;;;;;5072242;28;20541;-72
2022/04/18 00:09:41;;;;;;;0.60;0.10;;;10.50;99.90;;;;;;5072388;28;20437;-74
2022/04/18 00:12:09;;;;;;;0.60;0.10;;;10.60;99.90;;;;;;5055365;28;20826;-73
2022/04/18 00:14:38;;;;;;;0.60;0.10;;;;;;;;;;5052604;28;20820;-72
2022/04/18 00:17:09;;;;;;;0.60;0.20;;;10.60;99.90;;;;;;5052895;28;20482;-74
2022/04/18 00:19:37;;;;;;;0.60;0.10;;;10.50;99.90;;;;;;5058124;28;20481;-73
2022/04/18 00:22:06;;;;;;;0.60;0.10;;;10.50;99.90;;;;;;5072085;28;20492;-76
2022/04/18 00:24:34;;;;;;;0.60;0.10;;;10.50;99.90;;;;;;5072847;28;20481;-74
2022/04/18 00:27:02;;;;;;;0.60;0.10;;;10.50;99.90;;;;;;5072100;28;20783;-73
2022/04/18 00:29:30;;;;;;;0.60;0.10;;;10.50;99.90;;;;;;5072962;28;20947;-73
2022/04/18 00:31:58;;;;;;;0.60;0.10;;;10.50;99.90;;;;;;5073388;28;20465;-73
2022/04/18 00:34:27;;;;;;;0.60;0.10;;;10.50;99.90;;;;;;5073188;28;20455;-74
2022/04/18 00:36:55;;;;;;;0.60;0.10;;;10.50;99.90;;;;;;5073876;28;21033;-73
2022/04/18 00:39:23;;;;;;;0.60;0.10;;;;;;;;;;5074218;28;20458;-72
2022/04/18 00:41:51;;;;;;;0.60;0.10;;;10.50;99.90;;;;;;5073419;28;20453;-73
2022/04/18 00:44:19;;;;;;;0.60;0.10;;;10.50;99.90;;;;;;5072611;28;20548;-74
2022/04/18 00:46:47;;;;;;;0.60;0.10;;;10.50;99.90;;;;;;5072199;28;20442;-72
2022/04/18 00:49:15;;;;;;;0.60;0.10;;;10.50;99.90;;;;;;5071364;28;20446;-73
2022/04/18 00:51:45;;;;;;;0.60;0.10;;;10.40;99.90;;;;;;5071748;28;20975;-73
2022/04/18 00:54:14;;;;;;;0.60;0.10;;;10.50;99.90;;;;;;5071798;28;20452;-72
2022/04/18 00:56:42;;;;;;;0.60;0.10;;;;;;;;;;5070371;28;20477;-72
2022/04/18 00:59:10;;;;;;;0.60;0.10;;;10.40;99.90;;;;;;5072498;28;20757;-72
2022/04/18 01:01:38;;;;;;;0.60;0.10;;;10.30;99.90;;;;;;5071836;28;20484;-72
2022/04/18 01:04:07;;;;;;;0.60;0.10;;;10.30;99.90;;;;;;5071942;28;20636;-71
2022/04/18 01:06:35;;;;;;;0.60;0.20;;;10.30;99.90;;;;;;5071213;28;20967;-71
2022/04/18 01:09:04;;;;;;;0.60;0.10;;;10.30;99.90;;;;;;5079269;28;20435;-71
2022/04/18 01:11:33;;;;;;;0.60;0.10;;;10.30;99.90;;;;;;5092353;28;20230;-73
2022/04/18 01:14:02;;;;;;;0.60;0.10;;;10.30;99.90;;;;;;5087840;28;20445;-72
2022/04/18 01:16:30;;;;;;;0.60;0.10;;;10.30;99.90;;;;;;5071341;28;20947;-73
2022/04/18 01:18:58;;;;;;;0.60;0.10;;;10.20;99.90;;;;;;5072467;28;20461;-74
2022/04/18 01:21:27;;;;;;;0.60;0.10;;;10.20;99.90;;;;;;5072451;28;20544;-73
2022/04/18 01:23:58;;;;;;;0.60;0.10;;;10.20;99.90;;;;;;5072209;28;20481;-72
2022/04/18 01:29:11;;;;;;;1.70;1.60;;;10.10;99.90;;;;;;5072357;28;20428;-71
2022/04/18 01:31:40;;;;;;;0.80;0.60;;;10.10;99.90;;;;;;5072713;28;20480;-72
2022/04/18 01:34:08;;;;;;;0.60;0.10;;;10.00;99.90;;;;;;5072434;28;20433;-71
2022/04/18 01:36:38;;;;;;;0.60;0.10;;;10.00;99.90;;;;;;5072587;28;20485;-72
2022/04/18 01:39:06;;;;;;;0.60;0.10;;;9.90;99.90;;;;;;5073446;28;20452;-73
2022/04/18 01:41:33;;;;;;;0.60;0.10;;;9.90;99.90;;;;;;5072347;28;20469;-73
2022/04/18 01:44:01;;;;;;;0.60;0.10;;;9.90;99.90;;;;;;5071902;28;20445;-74
2022/04/18 01:46:29;;;;;;;0.60;0.20;;;;;;;;;;5071188;28;20449;-72
2022/04/18 01:48:57;;;;;;;0.60;0.10;;;9.80;99.90;;;;;;5072097;28;20437;-74
2022/04/18 01:51:25;;;;;;;0.60;0.10;;;9.70;99.90;;;;;;5071369;28;20476;-72
2022/04/18 01:53:58;;;;;;;0.60;0.10;;;9.70;99.90;;;;;;5071912;28;20464;-72
2022/04/18 01:56:26;;;;;;;0.60;0.10;;;9.70;99.90;;;;;;5071260;28;20831;-74
2022/04/18 01:58:53;;;;;;;0.60;0.10;;;9.60;99.90;;;;;;5071563;28;20484;-72
2022/04/18 02:01:21;;;;;;;0.60;0.10;;;9.60;99.90;;;;;;5071620;28;20477;-73
2022/04/18 02:03:49;;;;;;;1.17;1.07;;;9.60;99.90;;;;;;5072170;28;20441;-73
2022/04/18 02:06:17;;;;;;;0.60;0.10;;;9.60;99.90;;;;;;5071480;28;20444;-71
2022/04/18 02:08:45;;;;;;;0.60;0.10;;;9.60;99.90;;;;;;5071886;28;20535;-72
2022/04/18 02:11:15;;;;;;;0.60;0.10;;;9.60;99.90;;;;;;5082935;28;20441;-74
2022/04/18 02:13:43;;;;;;;0.60;0.10;;;9.70;99.90;;;;;;5083415;28;20441;-72
2022/04/18 02:16:11;;;;;;;0.60;0.10;;;9.60;99.90;;;;;;5082828;28;20481;-73
2022/04/18 02:18:39;;;;;;;0.60;0.10;;;9.60;99.90;;;;;;5082646;28;20578;-72
2022/04/18 02:21:08;;;;;;;0.60;0.10;;;9.60;99.90;;;;;;5079873;28;20449;-73
2022/04/18 02:23:36;;;;;;;0.60;0.10;;;9.60;99.90;;;;;;5071854;28;20445;-73
2022/04/18 02:26:03;;;;;;;0.60;0.20;;;9.50;99.90;;;;;;5071217;28;20464;-73
2022/04/18 02:28:32;;;;;;;0.60;0.10;;;9.60;99.90;;;;;;5071126;28;20444;-73
2022/04/18 02:31:00;;;;;;;0.60;0.10;;;9.60;99.90;;;;;;5071298;28;20441;-72
2022/04/18 02:33:29;;;;;;;1.83;0.30;;;9.60;99.90;;;;;;5071244;28;20441;-72
2022/04/18 02:35:57;;;;;;;0.60;0.10;;;9.50;99.90;;;;;;5070883;28;20928;-72
2022/04/18 02:38:25;;;;;;;0.60;0.10;;;9.50;99.90;;;;;;5070579;28;20480;-72
2022/04/18 02:40:52;;;;;;;0.60;0.20;;;9.40;99.90;;;;;;5071582;28;20445;-72
2022/04/18 02:43:20;;;;;;;0.60;0.10;;;9.40;99.90;;;;;;5071204;28;20507;-73
2022/04/18 02:45:50;;;;;;;0.60;0.10;;;9.40;99.90;;;;;;5080660;28;20452;-73
2022/04/18 02:48:18;;;;;;;2.20;2.10;;;8.60;99.90;;;;;;5071625;28;20847;-71
2022/04/18 02:50:45;;;;;;;0.60;0.10;;;9.40;99.90;;;;;;5071445;28;20452;-72
2022/04/18 02:53:13;;;;;;;0.60;0.10;;;9.40;99.90;;;;;;5071984;28;20465;-71
2022/04/18 02:55:41;;;;;;;0.60;0.10;;;9.30;99.90;;;;;;5071035;28;20948;-71
2022/04/18 02:58:09;;;;;;;0.60;0.10;;;9.30;99.90;;;;;;5070762;28;20473;-73
2022/04/18 03:00:37;;;;;;;0.60;0.10;;;9.20;99.90;;;;;;5071016;28;20473;-71
2022/04/18 03:03:06;;;;;;;0.60;0.10;;;9.20;99.90;;;;;;5069765;28;20480;-74
2022/04/18 03:05:35;;;;;;;0.60;0.20;;;9.20;99.90;;;;;;5067598;28;20456;-72
2022/04/18 03:08:02;;;;;;;0.60;0.10;;;9.00;99.90;;;;;;5074413;28;20433;-73
2022/04/18 03:13:16;;;;;;;0.60;0.10;;;9.00;99.90;;;;;;5090472;28;20482;-72
2022/04/18 03:15:44;;;;;;;0.60;0.10;;;;;;;;;;5086405;28;20449;-73
2022/04/18 03:18:13;;;;;;;0.60;0.10;;;8.90;99.90;;;;;;5071031;28;20550;-73
2022/04/18 03:20:42;;;;;;;0.60;0.10;;;8.90;99.90;;;;;;5073239;28;20447;-72
2022/04/18 03:23:10;;;;;;;0.60;0.10;;;8.80;99.90;;;;;;5074425;28;20460;-72
2022/04/18 03:25:38;;;;;;;0.60;0.10;;;8.70;99.90;;;;;;5073894;28;21006;-73
2022/04/18 03:28:07;;;;;;;0.60;0.20;;;8.70;99.90;;;;;;5073774;28;20445;-73
2022/04/18 03:30:34;;;;;;;0.60;0.10;;;8.60;99.90;;;;;;5072775;28;20929;-73
2022/04/18 03:33:02;;;;;;;0.60;0.10;;;8.60;99.90;;;;;;5074437;28;20501;-72
2022/04/18 03:35:32;;;;;;;0.60;0.10;;;8.60;99.90;;;;;;5073769;28;20448;-73
2022/04/18 03:40:45;;;;;;;0.60;0.10;;;8.50;99.90;;;;;;5074605;28;20452;-72
2022/04/18 03:43:13;;;;;;;0.60;0.10;;;8.50;99.90;;;;;;5073889;28;21006;-73
2022/04/18 03:45:40;;;;;;;0.60;0.10;;;8.50;99.90;;;;;;5073715;28;20448;-71
2022/04/18 03:48:11;;;;;;;0.60;0.20;;;8.50;99.90;;;;;;5073819;28;20444;-73
2022/04/18 03:50:41;;;;;;;0.60;0.30;;;8.40;99.90;;;;;;5073797;28;20810;-73
2022/04/18 03:53:09;;;;;;;0.60;0.10;;;8.40;99.90;;;;;;5073846;28;20919;-73
2022/04/18 03:55:37;;;;;;;0.80;0.40;;;8.40;99.90;;;;;;5074006;28;20455;-72
2022/04/18 03:58:05;;;;;;;0.60;0.10;;;8.30;99.90;;;;;;5072461;28;20895;-71
2022/04/18 04:00:34;;;;;;;0.60;0.10;;;8.30;99.90;;;;;;5074527;28;20448;-73
2022/04/18 04:03:02;;;;;;;0.60;0.10;;;8.20;99.90;;;;;;5106155;23;20487;-78
2022/04/18 04:05:30;;;;;;;0.60;0.10;;;8.20;99.90;;;;;;5097071;28;20447;-77
2022/04/18 04:08:01;;;;;;;0.60;0.10;;;8.20;99.90;;;;;;5100371;28;20778;-77
2022/04/18 04:10:29;;;;;;;0.70;0.40;;;8.20;99.90;;;;;;5098193;28;20438;-77
2022/04/18 04:12:56;;;;;;;0.60;0.10;;;8.10;99.90;;;;;;5107553;28;20846;-77
2022/04/18 04:15:24;;;;;;;4.73;4.17;;;8.10;99.90;;;;;;5098592;28;20459;-77
2022/04/18 04:17:52;;;;;;;0.60;0.20;;;8.00;99.90;;;;;;5095267;28;20833;-77
2022/04/18 04:20:22;;;;;;;0.60;0.20;;;8.00;99.90;;;;;;5113405;28;20485;-76
2022/04/18 04:22:51;;;;;;;0.60;0.10;;;7.90;99.90;;;;;;5115485;28;20465;-77
2022/04/18 04:25:20;;;;;;;0.60;0.10;;;7.90;99.90;;;;;;5111381;28;20797;-77
2022/04/18 04:27:48;;;;;;;0.60;0.10;;;7.90;99.90;;;;;;5093014;28;20456;-77
2022/04/18 04:30:16;;;;;;;0.60;0.10;;;7.80;99.90;;;;;;5098990;28;20446;-76
2022/04/18 04:32:44;;;;;;;0.60;0.10;;;7.80;99.90;;;;;;5114448;28;20841;-77
2022/04/18 04:35:12;;;;;;;0.60;0.10;;;7.80;99.90;;;;;;5100534;28;20443;-76
2022/04/18 04:37:40;;;;;;;0.60;0.10;;;7.80;99.90;;;;;;5095091;28;20518;-75
2022/04/18 04:40:09;;;;;;;0.60;0.20;;;7.80;99.90;;;;;;5117690;28;20501;-77
2022/04/18 04:42:39;;;;;;;0.60;0.10;;;7.70;99.90;;;;;;5125168;28;20466;-76
2022/04/18 04:45:07;;;;;;;0.60;0.10;;;7.70;99.90;;;;;;5115931;28;20435;-77
2022/04/18 04:47:35;;;;;;;0.90;0.80;;;7.70;99.90;;;;;;5116544;28;20445;-77
2022/04/18 04:50:03;;;;;;;0.60;0.20;;;7.70;99.90;;;;;;5111594;28;20466;-78
2022/04/18 04:52:30;;;;;;;0.60;0.10;;;7.60;99.90;;;;;;5099965;28;20502;-79
2022/04/18 04:54:58;;;;;;;0.60;0.10;;;7.70;99.90;;;;;;5099686;28;20440;-77
2022/04/18 04:57:26;;;;;;;0.60;0.20;;;7.60;99.90;;;;;;5093939;28;20526;-78
2022/04/18 04:59:55;;;;;;;0.60;0.10;;;7.70;99.90;;;;;;5095144;28;20474;-78
2022/04/18 05:02:24;;;;;;;0.60;0.10;;;7.80;99.90;;;;;;5094061;28;20475;-77
2022/04/18 05:04:52;;;;;;;0.60;0.17;;;7.80;99.90;;;;;;5094292;28;20942;-77
2022/04/18 05:07:20;;;;;;;0.60;0.10;;;7.80;99.90;;;;;;5092894;28;20445;-78
2022/04/18 05:09:48;;;;;;;0.60;0.10;;;7.80;99.90;;;;;;5093556;28;20467;-78
2022/04/18 05:12:16;;;;;;;0.60;0.10;;;7.90;99.90;;;;;;5092982;28;20554;-76
2022/04/18 05:14:44;;;;;;;0.60;0.10;;;7.90;99.90;;;;;;5093341;28;20453;-77
2022/04/18 05:17:13;;;;;;;0.60;0.10;;;7.90;99.90;;;;;;5093556;28;20425;-77
2022/04/18 05:19:41;;;;;;;0.60;0.10;;;8.10;99.90;;;;;;5094833;28;20491;-78
2022/04/18 05:22:09;;;;;;;0.60;0.10;;;8.10;99.90;;;;;;5113931;28;20467;-77
2022/04/18 05:24:37;;;;;;;0.60;0.10;;;8.20;99.90;;;;;;5113962;28;20446;-76
2022/04/18 05:27:05;;;;;;;0.60;0.10;;;8.30;99.90;;;;;;5114539;28;20446;-78
2022/04/18 05:29:33;;;;;;;0.60;0.10;;;8.30;99.90;;;;;;5114328;28;20913;-77
2022/04/18 05:32:01;;;;;;;0.60;0.10;;;8.50;99.90;;;;;;5115094;28;20466;-77
2022/04/18 05:34:30;;;;;;;0.60;0.10;;;8.50;99.90;;;;;;5114558;28;20507;-77
2022/04/18 05:36:58;;;;;;;0.60;0.10;;;8.60;99.90;;;;;;5112923;28;20453;-76
2022/04/18 05:39:26;;;;;;;0.80;0.60;;;8.60;99.90;;;;;;5113150;28;20475;-77
2022/04/18 05:41:56;;;;;;;0.60;0.10;;;8.60;99.90;;;;;;5112508;28;20817;-77
2022/04/18 05:44:24;;;;;;;0.60;0.10;;;8.60;99.90;;;;;;5112936;28;20443;-76
2022/04/18 05:46:52;;;;;;;0.60;0.10;;;8.70;99.90;;;;;;5113584;28;20443;-77
2022/04/18 05:49:20;;;;;;;0.70;0.40;;;8.70;99.90;;;;;;5112622;28;20435;-77
2022/04/18 05:51:49;;;;;;;0.60;0.10;;;8.80;99.90;;;;;;5113976;28;20494;-77
2022/04/18 05:54:17;;;;;;;0.60;0.10;;;8.80;99.90;;;;;;5113563;28;20458;-77
2022/04/18 05:56:45;;;;;;;0.60;0.10;;;8.90;99.90;;;;;;5113815;28;20440;-77
2022/04/18 05:59:13;;;;;;;0.60;0.10;;;;;;;;;;5122137;28;20474;-76
2022/04/18 06:01:41;;;;;;;0.60;0.10;;;9.00;99.90;;;;;;5122885;28;20512;-76
2022/04/18 06:04:09;;;;;;;0.60;0.10;;;9.00;99.90;;;;;;5118333;28;20512;-78
2022/04/18 06:06:37;;;;;;;0.60;0.10;;;9.10;99.90;;;;;;5117937;28;20534;-78
2022/04/18 06:09:06;;;;;;;0.60;0.10;;;9.20;99.90;;;;;;5114013;28;20486;-78
2022/04/18 06:11:34;;;;;;;0.60;0.10;;;9.30;99.90;;;;;;5113465;28;20468;-78
2022/04/18 06:14:02;;;;;;;0.60;0.10;;;9.30;99.90;;;;;;5111966;28;20439;-78
2022/04/18 06:16:30;;;;;;;0.60;0.10;;;9.40;99.90;;;;;;5112608;28;20448;-76
2022/04/18 06:18:58;;;;;;;0.80;0.73;;;9.50;99.90;;;;;;5112388;28;20436;-78
2022/04/18 06:21:26;;;;;;;0.60;0.10;;;9.60;99.90;;;;;;5112685;28;20483;-76
2022/04/18 06:23:54;;;;;;;0.60;0.13;;;9.60;99.90;;;;;;5112697;28;20436;-76
2022/04/18 06:26:24;;;;;;;0.60;0.10;;;9.70;99.90;;;;;;5101242;28;20445;-77
2022/04/18 06:28:53;;;;;;;0.60;0.10;;;9.80;99.90;;;;;;5092796;28;20444;-78
2022/04/18 06:31:20;;;;;;;0.60;0.20;;;9.80;99.90;;;;;;5092138;28;20445;-78
2022/04/18 06:33:48;;;;;;;0.60;0.20;;;9.80;99.90;;;;;;5092820;28;20445;-78
2022/04/18 06:36:19;;;;;;;0.60;0.10;;;;;;;;;;5102005;28;20468;-78
2022/04/18 06:38:47;;;;;;;0.60;0.10;;;9.90;99.90;;;;;;5093469;28;20451;-77
2022/04/18 06:41:15;;;;;;;0.60;0.10;;;10.00;99.90;;;;;;5094719;28;20476;-77
2022/04/18 06:43:45;;;;;;;0.60;0.10;;;10.00;99.90;;;;;;5093345;28;20495;-78
2022/04/18 06:46:13;;;;;;;0.60;0.10;;;10.10;99.90;;;;;;5097922;28;20447;-78
2022/04/18 06:48:41;;;;;;;0.60;0.10;;;10.10;99.90;;;;;;5114667;28;20475;-77
2022/04/18 06:51:08;;;;;;;0.60;0.10;;;10.20;99.90;;;;;;5115840;28;20442;-78
2022/04/18 06:53:36;;;;;;;0.60;0.10;;;10.20;99.90;;;;;;5115661;28;20477;-78
2022/04/18 06:58:51;;;;;;;0.60;0.10;;;10.40;99.90;;;;;;5122101;28;20439;-78
2022/04/18 07:01:20;;;;;;;0.60;0.10;;;10.50;99.90;;;;;;5127569;28;20845;-77
2022/04/18 07:03:48;;;;;;;0.60;0.10;;;10.50;99.90;;;;;;5129897;28;20440;-77
2022/04/18 07:06:16;;;;;;;0.60;0.10;;;10.60;99.90;;;;;;5127373;28;20451;-78
2022/04/18 07:08:45;;;;;;;0.60;0.10;;;10.70;99.90;;;;;;5128157;28;20530;-77
2022/04/18 07:11:13;;;;;;;0.60;0.10;;;;;;;;;;5127240;28;20438;-77
2022/04/18 07:13:41;;;;;;;0.60;0.10;;;10.80;99.90;;;;;;5125912;28;20452;-77
2022/04/18 07:16:11;;;;;;;0.60;0.10;;;10.90;99.90;;;;;;5127300;28;20470;-78
2022/04/18 07:18:38;;;;;;;0.60;0.10;;;11.00;99.90;;;;;;5125030;28;20462;-78
2022/04/18 07:21:06;;;;;;;0.60;0.10;;;11.10;99.90;;;;;;5121944;28;20506;-77
2022/04/18 07:23:34;;;;;;;0.60;0.10;;;11.10;99.90;;;;;;5122915;28;20459;-78
2022/04/18 07:26:02;;;;;;;0.60;0.10;;;11.20;99.90;;;;;;5115774;28;20459;-77
2022/04/18 07:28:30;;;;;;;0.60;0.10;;;11.30;99.90;;;;;;5103845;28;20448;-78
2022/04/18 07:30:58;;;;;;;0.60;0.10;;;13.60;99.90;;;;;;5101229;28;20442;-76
2022/04/18 07:33:27;;;;;;;0.60;0.13;;;11.40;99.90;;;;;;5102054;28;20472;-78
2022/04/18 07:35:55;;;;;;;0.60;0.10;;;11.50;99.90;;;;;;5115824;28;20454;-78
2022/04/18 07:41:09;;;;;;;0.60;0.10;;;11.60;99.90;;;;;;5121744;28;20470;-78
2022/04/18 07:43:37;;;;;;;0.60;0.10;;;11.60;99.90;;;;;;5119710;28;20538;-78
2022/04/18 07:46:05;;;;;;;0.60;0.10;;;11.70;99.90;;;;;;5118955;28;20446;-79
2022/04/18 07:48:35;;;;;;;0.60;0.10;;;11.70;99.90;;;;;;5120046;28;20436;-77
2022/04/18 07:53:49;;;;;;;0.60;0.10;;;11.80;99.90;;;;;;5119363;28;20972;-78
2022/04/18 07:56:17;;;;;;;0.60;0.10;;;11.90;99.90;;;;;;5121686;28;20442;-77
2022/04/18 07:58:45;;;;;;;0.60;0.10;;;12.00;99.90;;;;;;5123563;28;20446;-78
2022/04/18 08:01:13;;;;;;;0.60;0.10;;;11.90;99.90;;;;;;5123351;28;20472;-77
2022/04/18 08:03:42;;;;;;;0.60;0.10;;;11.90;99.90;;;;;;5123073;28;20459;-77
2022/04/18 08:06:10;;;;;;;0.60;0.10;;;12.00;99.90;;;;;;5125145;28;20443;-78
2022/04/18 08:08:38;;;;;;;0.60;0.10;;;12.00;99.90;;;;;;5126392;28;20523;-77
2022/04/18 08:11:07;;;;;;;0.60;0.10;;;12.10;99.90;;;;;;5125855;28;20472;-78
2022/04/18 08:13:35;;;;;;;0.60;0.10;;;12.30;99.90;;;;;;5125779;28;20490;-77
2022/04/18 08:16:03;;;;;;;0.60;0.10;;;12.40;99.90;;;;;;5131403;28;20448;-78
2022/04/18 08:18:31;;;;;;;0.60;0.10;;;12.50;99.90;;;;;;5115954;28;20467;-76
2022/04/18 08:21:01;;;;;;;0.60;0.10;;;12.60;99.90;;;;;;5120325;28;20818;-78
2022/04/18 08:23:29;;;;;;;0.60;0.10;;;12.60;99.90;;;;;;5107834;28;20469;-77
2022/04/18 08:25:57;;;;;;;0.60;0.10;;;12.60;99.90;;;;;;5117638;28;20790;-78
2022/04/18 08:28:26;;;;;;;0.60;0.10;;;12.80;99.90;;;;;;5118246;28;20783;-79
2022/04/18 08:30:54;;;;;;;0.60;0.10;;;12.80;99.90;;;;;;5118082;28;20444;-78
2022/04/18 08:33:22;;;;;;;0.60;0.10;;;12.80;99.90;;;;;;5120274;28;20447;-79
2022/04/18 08:35:50;;;;;;;0.60;0.10;;;12.80;99.90;;;;;;5121086;28;20502;-77
2022/04/18 08:38:19;;;;;;;0.60;0.10;;;12.90;99.90;;;;;;5121843;28;20450;-78
2022/04/18 08:40:50;;;;;;;0.60;0.10;;;12.90;99.90;;;;;;5122510;28;20528;-78
2022/04/18 08:43:18;;;;;;;0.60;0.10;;;12.90;99.90;;;;;;5119700;28;20494;-77
2022/04/18 08:45:47;;;;;;;0.60;0.10;;;12.80;99.90;;;;;;5116462;28;20548;-77
2022/04/18 08:53:49;;;;;;;0.60;0.10;;;13.10;99.90;;;;;;5120631;28;20439;-78
2022/04/18 08:56:17;;;;;;;0.60;0.10;;;13.20;99.90;;;;;;5117132;28;20459;-78
2022/04/18 08:58:47;;;;;;;0.60;0.10;;;13.10;99.90;;;;;;5119848;28;20459;-78
2022/04/18 09:01:16;;;;;;;0.60;0.20;;;13.20;99.90;;;;;;5124929;28;20493;-78
2022/04/18 09:03:44;;;;;;;0.60;0.10;;;13.20;99.90;;;;;;5127621;28;20503;-78
2022/04/18 09:06:14;;;;;;;2.50;1.83;;;13.50;99.90;;;;;;5110251;28;20454;-78
2022/04/18 09:08:47;;;;;;;0.60;0.10;;;13.50;99.90;;;;;;5129516;28;20437;-78
2022/04/18 09:11:28;;;;;;;0.60;0.10;;;13.60;99.90;;;;;;5123464;28;20441;-78
2022/04/18 09:14:04;;;;;;;0.60;0.17;;;15.00;99.90;;;;;;5121753;28;20454;-78
2022/04/18 09:16:33;;;;;;;0.60;0.10;;;13.50;99.90;;;;;;5121167;28;20441;-77
2022/04/18 09:19:09;;;;;;;0.60;0.20;;;13.50;99.90;;;;;;5104167;28;20451;-74
2022/04/18 09:21:42;;;;;;;0.60;0.10;;;13.70;99.90;;;;;;5093540;28;20483;-76
2022/04/18 09:24:26;;;;;;;0.60;0.10;;;13.70;99.90;;;;;;5089778;28;20508;-74
2022/04/18 09:26:56;;;;;;;0.60;0.10;;;13.80;99.90;;;;;;5106677;28;20457;-76
2022/04/18 09:29:24;;;;;;;0.60;0.10;;;13.90;99.90;;;;;;5112858;28;20454;-76
2022/04/18 09:31:53;;;;;;;0.60;0.10;;;13.90;99.90;;;;;;5114172;28;20479;-75
2022/04/18 09:34:21;;;;;;;0.60;0.10;;;14.00;99.90;;;;;;5114146;28;20826;-76
2022/04/18 09:36:50;;;;;;;0.60;0.10;;;;;;;;;;5113906;28;20441;-75
2022/04/18 09:39:24;;;;;;;0.60;0.10;;;14.10;99.90;;;;;;5115333;28;20830;-76
2022/04/18 09:42:10;;;;;;;0.60;0.10;;;14.30;99.90;;;;;;5114166;28;20479;-75
2022/04/18 09:44:38;;;;;;;0.60;0.10;;;14.40;99.90;;;;;;5115914;28;20475;-75
2022/04/18 09:47:06;;;;;;;0.60;0.10;;;14.40;99.90;;;;;;5116601;28;20453;-75
2022/04/18 09:49:38;;;;;;;0.60;0.10;;;;;;;;;;5115665;28;20454;-75
2022/04/18 09:52:08;;;;;;;0.60;0.13;;;14.50;99.90;;;;;;5113256;28;20979;-75
2022/04/18 09:54:36;;;;;;;0.60;0.20;;;14.60;99.90;;;;;;5112415;28;20536;-76
2022/04/18 09:57:06;;;;;;;0.60;0.10;;;14.70;99.90;;;;;;5111943;28;20454;-76
2022/04/18 09:59:35;;;;;;;0.60;0.10;;;14.60;99.90;;;;;;5111612;28;20484;-74
2022/04/18 10:02:04;;;;;;;1.27;0.30;;;14.80;99.90;;;;;;5112621;22;20455;-73
2022/04/18 10:04:34;;;;;;;0.60;0.10;;;14.80;99.90;;;;;;5031140;28;20534;-73
2022/04/18 10:07:03;;;;;;;0.60;0.20;;;15.00;99.90;;;;;;5031470;28;20448;-73
2022/04/18 10:09:33;;;;;;;0.60;0.10;;;15.10;99.90;;;;;;5030800;28;20471;-72
2022/04/18 10:12:03;;;;;;;0.60;0.10;;;15.20;99.90;;;;;;5031562;28;20516;-73
2022/04/18 10:14:32;;;;;;;0.60;0.10;;;15.30;99.90;;;;;;5031694;28;20570;-73
2022/04/18 10:17:02;;;;;;;0.60;0.20;;;15.30;99.90;;;;;;5030956;28;20545;-73
2022/04/18 10:19:45;;;;;;;0.60;0.10;;;15.60;99.90;;;;;;5032036;28;20451;-73
2022/04/18 10:22:32;;;;;;;0.60;0.10;;;15.70;99.90;;;;;;5031459;28;20487;-73
2022/04/18 10:25:10;;;;;;;0.60;0.10;;;15.70;99.90;;;;;;5029918;28;20470;-69
2022/04/18 10:27:56;;;;;;;0.60;0.10;;;15.70;99.90;;;;;;5031141;28;20450;-70
2022/04/18 10:30:25;;;;;;;0.70;0.30;;;15.90;99.90;;;;;;5033405;28;20443;-71
2022/04/18 10:32:56;;;;;;;0.60;0.10;;;16.20;99.90;;;;;;5034667;28;20976;-73
2022/04/18 10:35:24;;;;;;;0.60;0.10;;;16.30;99.90;;;;;;5035347;28;20442;-71
2022/04/18 10:37:55;;;;;;;0.60;0.10;;;16.50;99.90;;;;;;5032511;28;20522;-74
2022/04/18 10:40:24;;;;;;;0.60;0.20;;;16.50;99.90;;;;;;5035391;28;20820;-74
2022/04/18 10:42:54;;;;;;;0.60;0.20;;;16.50;99.90;;;;;;5034938;28;20547;-74
2022/04/18 10:45:24;;;;;;;0.60;0.10;;;16.50;99.90;;;;;;5037046;28;20541;-75
2022/04/18 10:48:09;;;;;;;0.70;0.57;;;16.30;99.90;;;;;;5034060;28;20564;-74
2022/04/18 10:50:40;;;;;;;1.53;0.63;;;16.30;99.90;;;;;;5032728;28;20455;-74
2022/04/18 10:53:20;;;;;;;0.60;0.10;;;16.20;99.90;;;;;;5033855;28;20999;-74
2022/04/18 10:56:13;;;;;;;0.60;0.23;;;14.10;99.90;;;;;;5034907;28;20454;-75
2022/04/18 10:58:44;;;;;;;0.60;0.10;;;16.20;99.90;;;;;;5028159;28;20531;-74
2022/04/18 11:01:12;;;;;;;0.60;0.20;;;16.30;99.90;;;;;;5035479;28;20455;-74
2022/04/18 11:03:44;;;;;;;0.60;0.10;;;16.30;99.90;;;;;;5034514;28;20474;-75
2022/04/18 11:06:47;;;;;;;0.60;0.10;;;16.30;99.90;;;;;;5033412;28;20818;-74
2022/04/18 11:09:19;;;;;;;0.60;0.30;;;16.40;99.90;;;;;;5031507;28;20440;-74
2022/04/18 11:11:50;;;;;;;0.70;0.20;;;16.40;99.90;;;;;;5035843;28;20449;-75
2022/04/18 11:14:20;;;;;;;0.60;0.23;;;16.40;99.90;;;;;;5036969;28;20443;-73
2022/04/18 11:16:51;;;;;;;0.70;0.43;;;16.50;99.90;;;;;;5034431;28;20450;-75
2022/04/18 11:19:20;;;;;;;0.60;0.10;;;16.50;99.90;;;;;;5034253;28;20519;-74
2022/04/18 11:22:25;;;;;;;0.60;0.10;;;16.60;99.90;;;;;;5034976;28;20455;-75
2022/04/18 11:25:01;;;;;;;0.60;0.10;;;16.70;99.90;;;;;;5034572;28;20454;-74
2022/04/18 11:27:33;;;;;;;0.60;0.10;;;16.80;99.90;;;;;;5016882;28;20518;-74
2022/04/18 11:30:03;;;;;;;0.60;0.10;;;17.00;99.90;;;;;;5030854;28;20442;-76
2022/04/18 11:32:34;;;;;;;0.60;0.20;;;17.10;99.90;;;;;;5043158;28;20546;-74
2022/04/18 11:35:05;;;;;;;0.60;0.10;;;17.00;99.90;;;;;;5041314;28;20437;-74
2022/04/18 11:37:36;;;;;;;0.60;0.10;;;17.00;99.90;;;;;;5028004;28;20520;-75
2022/04/18 11:40:07;;;;;;;0.60;0.10;;;16.80;99.90;;;;;;5016355;28;20475;-75
2022/04/18 11:42:35;;;;;;;0.60;0.10;;;16.80;99.90;;;;;;5030835;28;20549;-75
2022/04/18 11:45:06;;;;;;;0.60;0.10;;;16.80;99.90;;;;;;5036233;28;20448;-75
2022/04/18 11:47:37;;;;;;;0.60;0.10;;;16.90;99.90;;;;;;5035426;28;20447;-76
2022/04/18 11:50:07;;;;;;;0.60;0.10;;;17.00;99.90;;;;;;5034209;28;20446;-76
2022/04/18 11:52:37;;;;;;;0.60;0.10;;;17.20;99.90;;;;;;5033555;28;20877;-74
2022/04/18 11:55:09;;;;;;;0.60;0.30;;;17.20;99.90;;;;;;5033955;28;20442;-75
2022/04/18 11:57:38;;;;;;;0.60;0.10;;;17.30;99.90;;;;;;5013813;28;20529;-76
2022/04/18 12:00:09;;;;;;;0.60;0.10;;;17.20;99.90;;;;;;5026383;28;20446;-76
2022/04/18 12:08:11;;;;;;;0.60;0.10;;;17.40;99.90;;;;;;5032527;28;21011;-74
2022/04/18 12:10:45;;;;;;;0.60;0.20;;;;;;;;;;5033813;28;20444;-74
2022/04/18 12:13:14;;;;;;;0.60;0.10;;;17.50;99.90;;;;;;5033592;28;20459;-74
2022/04/18 12:15:44;;;;;;;0.60;0.20;;;17.60;99.90;;;;;;5033860;28;20454;-72
2022/04/18 12:18:13;;;;;;;0.60;0.10;;;17.60;99.90;;;;;;5032067;28;20546;-71
2022/04/18 12:20:43;;;;;;;0.60;0.10;;;17.90;99.90;;;;;;5034536;28;20833;-72
2022/04/18 12:23:16;;;;;;;0.60;0.20;;;18.00;99.90;;;;;;5035045;28;20478;-73
2022/04/18 12:25:47;;;;;;;0.60;0.20;;;18.10;99.90;;;;;;5035594;28;20530;-72
2022/04/18 12:28:16;;;;;;;0.60;0.10;;;18.20;99.90;;;;;;5033698;28;20500;-72
2022/04/18 12:30:45;;;;;;;0.60;0.20;;;18.20;99.90;;;;;;5035283;28;20450;-71
2022/04/18 12:33:16;;;;;;;0.60;0.10;;;18.30;99.90;;;;;;5034859;28;20463;-72
2022/04/18 12:35:46;;;;;;;0.60;0.20;;;18.20;99.90;;;;;;5029685;28;20488;-73
2022/04/18 12:38:16;;;;;;;0.60;0.10;;;18.20;99.90;;;;;;5032195;28;20444;-73
2022/04/18 12:40:46;;;;;;;0.60;0.13;;;18.30;99.90;;;;;;5031252;28;20475;-73
2022/04/18 12:43:16;;;;;;;0.60;0.10;;;18.40;99.90;;;;;;5020161;28;20487;-73
2022/04/18 12:45:52;;;;;;;0.60;0.10;;;18.40;99.90;;;;;;5028155;28;20439;-72
2022/04/18 12:48:22;;;;;;;0.60;0.20;;;18.40;99.90;;;;;;5032602;28;20442;-73
2022/04/18 12:50:51;;;;;;;0.60;0.10;;;18.60;99.90;;;;;;5032487;28;20935;-69
2022/04/18 12:53:19;;;;;;;0.60;0.20;;;18.60;99.90;;;;;;5033459;28;20552;-74
2022/04/18 12:56:04;;;;;;;0.60;0.10;;;18.70;99.90;;;;;;5037177;28;20448;-71
2022/04/18 12:58:39;;;;;;;0.60;0.10;;;18.70;99.90;;;;;;5033405;28;20445;-73
2022/04/18 13:01:07;;;;;;;0.60;0.10;;;18.70;99.90;;;;;;5033416;28;20457;-73
2022/04/18 13:03:43;;;;;;;0.60;0.10;;;18.80;99.90;;;;;;5033222;28;20995;-72
2022/04/18 13:06:11;;;;;;;0.60;0.10;;;18.70;99.90;;;;;;5032742;28;20497;-73
2022/04/18 13:08:40;;;;;;;0.60;0.10;;;18.80;99.90;;;;;;5032787;28;20443;-74
2022/04/18 13:11:09;;;;;;;0.60;0.10;;;18.70;99.90;;;;;;5033290;28;20450;-74
2022/04/18 13:13:37;;;;;;;0.60;0.10;;;18.70;99.90;;;;;;5033388;28;20463;-74
2022/04/18 13:16:21;;;;;;;0.60;0.10;;;18.80;99.90;;;;;;5036019;28;20442;-75
2022/04/18 13:18:58;;;;;;;0.60;0.10;;;18.80;99.90;;;;;;5038927;28;20474;-73
2022/04/18 13:21:28;;;;;;;0.60;0.20;;;18.70;99.90;;;;;;5034076;28;20452;-73
2022/04/18 13:23:56;;;;;;;0.60;0.10;;;18.50;99.90;;;;;;5032127;28;21012;-74
2022/04/18 13:26:26;;;;;;;0.60;0.10;;;18.60;99.90;;;;;;5033008;28;20451;-73
2022/04/18 13:28:54;;;;;;;0.60;0.10;;;18.70;99.90;;;;;;5032600;28;20461;-73
2022/04/18 13:31:23;;;;;;;0.60;0.20;;;18.70;99.90;;;;;;5032196;28;20456;-72
2022/04/18 13:33:52;;;;;;;0.60;0.10;;;18.70;99.90;;;;;;5032433;28;21253;-72
2022/04/18 13:36:34;;;;;;;0.60;0.20;;;18.70;99.90;;;;;;5032245;28;20489;-74